Alanyurt, Turkey

1:12 AM +03 on January 23, 2018 (GMT +0300)
Cardak Air Base | | Change Station

Elev 2785 ft 37.78 °N, 29.70 °E | Updated 22 minutes ago

Overcast
Overcast
41 °F
Feels Like 35 °F
N
9
Wind Variable Wind from West

Today
High -- | Low -- °F
--% Chance of Precip.
Yesterday
High -- | Low -- °F
Precip. -- in
Pressure 29.56 in
Visibility 3.7 miles
Clouds Mostly Cloudy 2900 ft
Mostly Cloudy 9000 ft
Windchill 35 °F
Dew Point 41 °F
Humidity 100%
Rainfall 0.00 in
Snow Depth Not available.
8:14 AM 6:19 PM
Waxing Crescent, 29% visible
METAR LTAY 222150Z 28008KT 6000 SHRA BKN029 BKN090 05/05 Q1001
Pressure 29.56 in
Visibility 3.7 miles
Clouds Mostly Cloudy 2900 ft
Mostly Cloudy 9000 ft
Windchill 35 °F
Dew Point 41 °F
Humidity 100%
Rainfall 0.00 in
Snow Depth Not available.
8:14 AM 6:19 PM
Waxing Crescent, 29% visible
METAR LTAY 222150Z 28008KT 6000 SHRA BKN029 BKN090 05/05 Q1001

Get Severe Weather Alerts

Thanks for signing up!

Be on the lookout for a verification email in your inbox.

You'll start receiving the daily forecast at 6 AM.

×

10-Day Weather Forecast

×

Almanac

Astronomy

Jan. 23, 2018 Rise Set
Actual Time
Civil Twilight
Nautical Twilight
Astronomical Twilight
Moon
Length of Visible Light
Length of Day
Tomorrow will be .
, % of the Moon is Illuminated

Today's Extremes

Country Highs Country Lows

Community

WunderPhotos

Category 6

Welcome to Category 6. This is the collective home for Weather Underground's featured writeups by Dr. Jeff Masters (right), Bob Henson (left), Chris Burt, and other regular contributors.

Nearby

Air Quality

  Air Quality AQ Index Pollutant
Not available.

Snow Depth

Station Depth Elevation

Earthquake Activity

City Distance Mag. Time & Date
Minimum magnitude displayed is 2.5.

Coastal Water Temperatures

Place Temperature

Stations

Nearby Weather Stations

Station Location Temp. Windchill Dew Point Humidity Wind Precip. Elev Updated Type